Time;durP1;ratioP1;P1;durP2;ratioP2;P2;SDS_P1;SDS_P2;PMS_P1;PMS_P2;Temp;Humidity;BMP_temperature;BMP_pressure;BME280_temperature;BME280_humidity;BME280_pressure;Samples;Min_cycle;Max_cycle;Signal;HPM_P1;HPM_P2
2023/03/24 00:01:09;;;;;;;;;;;10.30;99.90;;;;;;6186536;23;20236;-88
2023/03/24 00:03:35;;;;;;;;;;;10.30;99.90;;;;;;6212848;23;19899;-88
2023/03/24 00:06:02;;;;;;;;;;;10.30;99.90;;;;;;6185676;23;20220;-89
2023/03/24 00:08:33;;;;;;;;;;;10.30;99.90;;;;;;6186164;23;19900;-89
2023/03/24 00:11:00;;;;;;;;;;;10.30;99.90;;;;;;6212735;23;19903;-87
2023/03/24 00:13:27;;;;;;;;;;;10.30;99.90;;;;;;6212758;23;19906;-89
2023/03/24 00:15:52;;;;;;;;;;;10.30;99.90;;;;;;6212770;23;19900;-89
2023/03/24 00:18:21;;;;;;;;;;;10.30;99.90;;;;;;6187247;23;19900;-90
2023/03/24 00:20:47;;;;;;;;;;;10.30;99.90;;;;;;6213526;23;19908;-89
2023/03/24 00:23:14;;;;;;;;;;;10.30;99.90;;;;;;6212410;23;19908;-89
2023/03/24 00:25:39;;;;;;;;;;;10.20;99.90;;;;;;6185915;23;19904;-88
2023/03/24 00:28:06;;;;;;;;;;;10.20;99.90;;;;;;6212622;23;19899;-88
2023/03/24 00:30:32;;;;;;;;;;;10.10;99.90;;;;;;6186064;23;19900;-91
2023/03/24 00:33:00;;;;;;;;;;;10.20;99.90;;;;;;6211597;23;19931;-89
2023/03/24 00:35:26;;;;;;;;;;;10.10;99.90;;;;;;6185762;23;19932;-87
2023/03/24 00:37:52;;;;;;;;;;;10.10;99.90;;;;;;6212775;23;19900;-86
2023/03/24 00:40:19;;;;;;;;;;;10.10;99.90;;;;;;6213436;23;19982;-87
2023/03/24 00:42:46;;;;;;;;;;;10.10;99.90;;;;;;6212579;23;19912;-87
2023/03/24 00:45:14;;;;;;;;;;;10.10;99.90;;;;;;6212497;23;19900;-89
2023/03/24 00:47:39;;;;;;;;;;;10.10;99.90;;;;;;6212121;23;19950;-92
2023/03/24 00:50:10;;;;;;;;;;;10.10;99.90;;;;;;6212768;23;19900;-88
2023/03/24 00:52:36;;;;;;;;;;;10.10;99.90;;;;;;6185700;23;20279;-89
2023/03/24 00:55:03;;;;;;;;;;;10.00;99.90;;;;;;6212138;23;19948;-92
2023/03/24 00:57:33;;;;;;;;;;;10.00;99.90;;;;;;6212537;23;19906;-89
2023/03/24 01:00:08;;;;;;;;;;;9.90;99.90;;;;;;6212335;23;19903;-88
2023/03/24 01:02:33;;;;;;;;;;;9.90;99.90;;;;;;6211218;23;19954;-90
2023/03/24 01:05:01;;;;;;;;;;;9.90;99.90;;;;;;6212183;23;19908;-87
2023/03/24 01:07:28;;;;;;;;;;;10.00;99.90;;;;;;6185642;23;19907;-91
2023/03/24 01:09:57;;;;;;;;;;;10.00;99.90;;;;;;6185610;23;19907;-85
2023/03/24 01:12:28;;;;;;;;;;;10.00;99.90;;;;;;6213427;23;19899;-89
2023/03/24 01:14:54;;;;;;;;;;;9.90;99.90;;;;;;6212578;23;20284;-86
2023/03/24 01:17:21;;;;;;;;;;;10.00;99.90;;;;;;6186425;23;19900;-91
2023/03/24 01:19:47;;;;;;;;;;;10.00;99.90;;;;;;6184822;23;19907;-87
2023/03/24 01:22:12;;;;;;;;;;;9.90;99.90;;;;;;6211859;23;19915;-87
2023/03/24 01:24:38;;;;;;;;;;;9.90;99.90;;;;;;6211863;23;19900;-87
2023/03/24 01:27:04;;;;;;;;;;;10.00;99.90;;;;;;6211774;23;20333;-87
2023/03/24 01:29:30;;;;;;;;;;;9.90;99.90;;;;;;6211678;23;19910;-88
2023/03/24 01:31:55;;;;;;;;;;;9.90;99.90;;;;;;6211028;23;19899;-87
2023/03/24 01:34:21;;;;;;;;;;;9.90;99.90;;;;;;6186246;23;19947;-87
2023/03/24 01:36:47;;;;;;;;;;;9.90;99.90;;;;;;6211826;23;20373;-87
2023/03/24 01:39:12;;;;;;;;;;;9.90;99.90;;;;;;6211627;23;20229;-87
2023/03/24 01:41:38;;;;;;;;;;;9.90;99.90;;;;;;6211614;23;19910;-88
2023/03/24 01:44:23;;;;;;;;;;;9.90;99.90;;;;;;6211524;23;19903;-86
2023/03/24 01:46:48;;;;;;;;;;;9.90;99.90;;;;;;6211029;23;19900;-87
2023/03/24 01:49:14;;;;;;;;;;;9.90;99.90;;;;;;6185200;23;19907;-88
2023/03/24 01:51:42;;;;;;;;;;;9.90;99.90;;;;;;6184941;23;20305;-87
2023/03/24 01:54:17;;;;;;;;;;;9.80;99.90;;;;;;6184933;23;19979;-87
2023/03/24 01:56:47;;;;;;;;;;;9.70;99.90;;;;;;6211689;23;19903;-89
2023/03/24 01:59:20;;;;;;;;;;;9.80;99.90;;;;;;6185199;23;19911;-89
2023/03/24 02:01:45;;;;;;;;;;;9.80;99.90;;;;;;6210941;23;20259;-88
2023/03/24 02:04:11;;;;;;;;;;;9.80;99.90;;;;;;6211778;23;19904;-89
2023/03/24 02:06:39;;;;;;;;;;;9.80;99.90;;;;;;6211639;23;19937;-88
2023/03/24 02:09:06;;;;;;;;;;;9.80;99.90;;;;;;6211487;23;19975;-88
2023/03/24 02:11:33;;;;;;;;;;;9.80;99.90;;;;;;6211596;23;19979;-89
2023/03/24 02:13:58;;;;;;;;;;;9.80;99.90;;;;;;6211505;23;19900;-89
2023/03/24 02:16:42;;;;;;;;;;;9.80;99.90;;;;;;6212872;23;19962;-87
2023/03/24 02:19:11;;;;;;;;;;;9.80;99.90;;;;;;6211358;23;19900;-88
2023/03/24 02:21:36;;;;;;;;;;;9.80;99.90;;;;;;6211473;23;19987;-88
2023/03/24 02:24:12;;;;;;;;;;;9.80;99.90;;;;;;6184950;23;19997;-90
2023/03/24 02:26:54;;;;;;;;;;;9.80;99.90;;;;;;6211349;23;19974;-88
2023/03/24 02:29:32;;;;;;;;;;;9.80;99.90;;;;;;6210974;23;19908;-90
2023/03/24 02:32:16;;;;;;;;;;;9.80;99.90;;;;;;6212628;23;19935;-88
2023/03/24 02:34:50;;;;;;;;;;;9.80;99.90;;;;;;6210919;23;19903;-87
2023/03/24 02:37:31;;;;;;;;;;;9.80;99.90;;;;;;6211383;23;19946;-91
2023/03/24 02:40:06;;;;;;;;;;;9.90;99.90;;;;;;6212664;23;19900;-88
2023/03/24 02:42:33;;;;;;;;;;;9.80;99.90;;;;;;6211079;23;19963;-86
2023/03/24 02:44:58;;;;;;;;;;;9.80;99.90;;;;;;6212445;23;19903;-90
2023/03/24 02:47:24;;;;;;;;;;;9.80;99.90;;;;;;6211314;23;19994;-89
2023/03/24 02:50:12;;;;;;;;;;;9.80;99.90;;;;;;6211228;23;20302;-88
2023/03/24 02:52:42;;;;;;;;;;;9.80;99.90;;;;;;6211279;23;20237;-87
2023/03/24 02:55:16;;;;;;;;;;;9.80;99.90;;;;;;6184638;23;19900;-89
2023/03/24 02:58:01;;;;;;;;;;;9.80;99.90;;;;;;6211057;23;19900;-89
2023/03/24 03:00:34;;;;;;;;;;;9.80;99.90;;;;;;6211279;23;19900;-89
2023/03/24 03:03:05;;;;;;;;;;;9.80;99.90;;;;;;6185238;23;19918;-88
2023/03/24 03:05:34;;;;;;;;;;;9.80;99.90;;;;;;6211708;23;19900;-86
2023/03/24 03:08:01;;;;;;;;;;;9.80;99.90;;;;;;6212117;23;19911;-88
2023/03/24 03:10:29;;;;;;;;;;;9.70;99.90;;;;;;6212071;23;19931;-88
2023/03/24 03:12:57;;;;;;;;;;;9.80;99.90;;;;;;6185202;23;19976;-87
2023/03/24 03:15:35;;;;;;;;;;;9.80;99.90;;;;;;6211433;23;20321;-87
2023/03/24 03:18:06;;;;;;;;;;;9.80;99.90;;;;;;6185607;23;19900;-90
2023/03/24 03:20:35;;;;;;;;;;;10.00;99.90;;;;;;6211123;23;19907;-85
2023/03/24 03:23:06;;;;;;;;;;;9.70;99.90;;;;;;6212139;23;19908;-85
2023/03/24 03:25:35;;;;;;;;;;;9.80;99.90;;;;;;6186294;23;20241;-89
2023/03/24 03:28:03;;;;;;;;;;;9.70;99.90;;;;;;6187228;23;20313;-85
2023/03/24 03:30:52;;;;;;;;;;;9.80;99.90;;;;;;6212946;23;19958;-84
2023/03/24 03:33:26;;;;;;;;;;;9.80;99.90;;;;;;6192854;23;19900;-87
2023/03/24 03:35:52;;;;;;;;;;;9.90;99.90;;;;;;6213236;23;20501;-88
2023/03/24 03:38:23;;;;;;;;;;;9.90;99.90;;;;;;6212978;23;19951;-86
2023/03/24 03:40:50;;;;;;;;;;;9.90;99.90;;;;;;6212311;23;19947;-86
2023/03/24 03:43:16;;;;;;;;;;;9.90;99.90;;;;;;6212253;23;19954;-87
2023/03/24 03:45:41;;;;;;;;;;;9.90;99.90;;;;;;6214125;23;19899;-87
2023/03/24 03:48:07;;;;;;;;;;;9.90;99.90;;;;;;6217628;23;19900;-85
2023/03/24 03:50:33;;;;;;;;;;;9.90;99.90;;;;;;6220211;23;19907;-85
2023/03/24 03:52:59;;;;;;;;;;;9.90;99.90;;;;;;6187669;23;20284;-86
2023/03/24 03:55:25;;;;;;;;;;;9.80;99.90;;;;;;6212486;23;19900;-86
2023/03/24 03:57:51;;;;;;;;;;;9.90;99.90;;;;;;6185333;23;19911;-84
2023/03/24 04:00:19;;;;;;;;;;;9.80;99.90;;;;;;6212255;23;19904;-84
2023/03/24 04:02:47;;;;;;;;;;;9.80;99.90;;;;;;6212013;23;19915;-87
2023/03/24 04:05:18;;;;;;;;;;;9.90;99.90;;;;;;6185635;23;19899;-88
2023/03/24 04:07:43;;;;;;;;;;;9.80;99.90;;;;;;6212670;23;19978;-87
2023/03/24 04:10:18;;;;;;;;;;;9.80;99.90;;;;;;6211177;23;19938;-86
2023/03/24 04:12:43;;;;;;;;;;;9.80;99.90;;;;;;6212002;23;20239;-91
2023/03/24 04:15:18;;;;;;;;;;;9.80;99.90;;;;;;6212349;23;19904;-87
2023/03/24 04:17:46;;;;;;;;;;;9.80;99.90;;;;;;6212291;23;19954;-87
2023/03/24 04:20:19;;;;;;;;;;;9.70;99.90;;;;;;6211106;23;19930;-86
2023/03/24 04:23:03;;;;;;;;;;;9.70;99.90;;;;;;6210786;23;19907;-86
2023/03/24 04:25:34;;;;;;;;;;;9.70;99.90;;;;;;6211951;23;19900;-86
2023/03/24 04:28:04;;;;;;;;;;;9.70;99.90;;;;;;6212992;23;19899;-89
2023/03/24 04:30:33;;;;;;;;;;;9.70;99.90;;;;;;6213850;23;19904;-86
2023/03/24 04:33:01;;;;;;;;;;;9.80;99.90;;;;;;6212693;23;19907;-85
2023/03/24 04:35:32;;;;;;;;;;;9.80;99.90;;;;;;6212064;23;19904;-90
2023/03/24 04:38:15;;;;;;;;;;;9.80;99.90;;;;;;6212284;23;19900;-89
2023/03/24 04:40:42;;;;;;;;;;;9.70;99.90;;;;;;6185767;23;19908;-88
2023/03/24 04:43:12;;;;;;;;;;;9.80;99.90;;;;;;6212372;23;19915;-91
2023/03/24 04:45:38;;;;;;;;;;;9.80;99.90;;;;;;6211723;23;19900;-90
2023/03/24 04:48:05;;;;;;;;;;;9.80;99.90;;;;;;6213231;23;20237;-89
2023/03/24 04:50:33;;;;;;;;;;;9.80;99.90;;;;;;6213624;23;19900;-86
2023/03/24 04:52:59;;;;;;;;;;;9.80;99.90;;;;;;6212571;23;19900;-89
2023/03/24 04:55:36;;;;;;;;;;;9.90;99.90;;;;;;6212216;23;19907;-86
2023/03/24 04:58:02;;;;;;;;;;;9.90;99.90;;;;;;6213362;23;19900;-86
2023/03/24 05:00:28;;;;;;;;;;;9.90;99.90;;;;;;6185727;23;19927;-84
2023/03/24 05:02:53;;;;;;;;;;;9.90;99.90;;;;;;6184114;23;19918;-89
2023/03/24 05:05:19;;;;;;;;;;;9.90;99.90;;;;;;6210962;23;20362;-89
2023/03/24 05:07:44;;;;;;;;;;;9.80;99.90;;;;;;6212697;23;19900;-89
2023/03/24 05:10:10;;;;;;;;;;;9.90;99.90;;;;;;6212265;23;19900;-87
2023/03/24 05:12:36;;;;;;;;;;;9.80;99.90;;;;;;6212928;23;19900;-88
2023/03/24 05:15:02;;;;;;;;;;;10.00;99.90;;;;;;6212526;23;20244;-86
2023/03/24 05:17:28;;;;;;;;;;;9.90;99.90;;;;;;6210386;23;19910;-87
2023/03/24 05:19:53;;;;;;;;;;;9.80;99.90;;;;;;6211710;23;19943;-88
2023/03/24 05:22:19;;;;;;;;;;;9.80;99.90;;;;;;6211667;23;19911;-85
2023/03/24 05:24:45;;;;;;;;;;;9.80;99.90;;;;;;6211518;23;19904;-85
2023/03/24 05:27:10;;;;;;;;;;;9.70;99.90;;;;;;6185049;23;19906;-85
2023/03/24 05:29:35;;;;;;;;;;;9.80;99.90;;;;;;6212308;23;19900;-85
2023/03/24 05:32:01;;;;;;;;;;;9.70;99.90;;;;;;6210579;23;19938;-89
2023/03/24 05:34:27;;;;;;;;;;;9.70;99.90;;;;;;6184598;23;19938;-84
2023/03/24 05:36:52;;;;;;;;;;;9.70;99.90;;;;;;6210938;23;19907;-85
2023/03/24 05:39:18;;;;;;;;;;;9.80;99.90;;;;;;6184707;23;19942;-87
2023/03/24 05:41:43;;;;;;;;;;;9.80;99.90;;;;;;6184996;23;20352;-86
2023/03/24 05:44:09;;;;;;;;;;;9.70;99.90;;;;;;6211780;23;19904;-85
2023/03/24 05:46:34;;;;;;;;;;;9.70;99.90;;;;;;6212014;23;19899;-87
2023/03/24 05:49:00;;;;;;;;;;;9.70;99.90;;;;;;6211451;23;19904;-86
2023/03/24 05:51:25;;;;;;;;;;;9.70;99.90;;;;;;6211374;23;19900;-85
2023/03/24 05:53:51;;;;;;;;;;;9.80;99.90;;;;;;6211196;23;19900;-85
2023/03/24 05:56:16;;;;;;;;;;;9.70;99.90;;;;;;6184438;23;19936;-85
2023/03/24 05:58:43;;;;;;;;;;;9.70;99.90;;;;;;6211333;23;19900;-84
2023/03/24 06:01:09;;;;;;;;;;;9.80;99.90;;;;;;6211954;23;19900;-86
2023/03/24 06:03:38;;;;;;;;;;;9.80;99.90;;;;;;6212321;23;19942;-89
2023/03/24 06:06:07;;;;;;;;;;;9.80;99.90;;;;;;6211585;23;19987;-87
2023/03/24 06:08:33;;;;;;;;;;;9.80;99.90;;;;;;6211904;23;19969;-87
2023/03/24 06:11:01;;;;;;;;;;;9.80;99.90;;;;;;6211210;23;19899;-87
2023/03/24 06:13:27;;;;;;;;;;;9.90;99.90;;;;;;6212455;23;19924;-90
2023/03/24 06:15:53;;;;;;;;;;;10.10;99.90;;;;;;6212203;23;19906;-89
2023/03/24 06:18:20;;;;;;;;;;;10.10;99.90;;;;;;6185677;23;19899;-90
2023/03/24 06:20:49;;;;;;;;;;;9.50;99.90;;;;;;6211650;23;20347;-89
2023/03/24 06:23:15;;;;;;;;;;;9.90;99.90;;;;;;6212014;23;19915;-91
2023/03/24 06:25:43;;;;;;;;;;;10.00;99.90;;;;;;6186216;23;20271;-87
2023/03/24 06:28:11;;;;;;;;;;;9.80;99.90;;;;;;6211594;23;19904;-89
2023/03/24 06:30:37;;;;;;;;;;;9.70;99.90;;;;;;6212353;23;19900;-91
2023/03/24 06:33:03;;;;;;;;;;;9.90;99.90;;;;;;6211351;23;19907;-88
2023/03/24 06:35:28;;;;;;;;;;;10.00;99.90;;;;;;6185244;23;19974;-87
2023/03/24 06:37:54;;;;;;;;;;;10.10;99.90;;;;;;6187616;23;19938;-88
2023/03/24 06:40:19;;;;;;;;;;;9.80;99.90;;;;;;6189738;23;19939;-89
2023/03/24 06:42:45;;;;;;;;;;;9.90;99.90;;;;;;6211069;23;19930;-88
2023/03/24 06:45:11;;;;;;;;;;;9.90;99.90;;;;;;6187469;23;19907;-87
2023/03/24 06:47:36;;;;;;;;;;;10.00;99.90;;;;;;6190036;23;19900;-91
2023/03/24 06:50:02;;;;;;;;;;;9.90;99.90;;;;;;6211648;23;19900;-91
2023/03/24 06:52:28;;;;;;;;;;;10.00;99.90;;;;;;6185072;23;19907;-90
2023/03/24 06:54:53;;;;;;;;;;;10.00;99.90;;;;;;6184206;23;19907;-94
2023/03/24 06:57:20;;;;;;;;;;;10.00;99.90;;;;;;6184889;23;20390;-90
2023/03/24 06:59:46;;;;;;;;;;;10.10;99.90;;;;;;6211540;23;19910;-88
2023/03/24 07:02:11;;;;;;;;;;;10.30;99.90;;;;;;6185536;23;19995;-89
2023/03/24 07:04:37;;;;;;;;;;;10.30;99.90;;;;;;6212082;23;19900;-93
2023/03/24 07:07:02;;;;;;;;;;;10.10;99.90;;;;;;6184827;23;19954;-89
2023/03/24 07:09:28;;;;;;;;;;;10.10;99.90;;;;;;6184103;23;19904;-91
2023/03/24 07:11:54;;;;;;;;;;;10.10;99.90;;;;;;6214968;23;19899;-89
2023/03/24 07:14:20;;;;;;;;;;;10.30;99.90;;;;;;6215036;23;19904;-89
2023/03/24 07:16:46;;;;;;;;;;;10.20;99.90;;;;;;6187963;23;19935;-88
2023/03/24 07:19:12;;;;;;;;;;;10.30;99.90;;;;;;6213407;23;19900;-87
2023/03/24 07:21:37;;;;;;;;;;;10.60;99.90;;;;;;6186059;23;19939;-88
2023/03/24 07:24:03;;;;;;;;;;;10.50;99.90;;;;;;6184656;23;19970;-88
2023/03/24 07:26:28;;;;;;;;;;;10.60;99.90;;;;;;6186305;23;19899;-88
2023/03/24 07:28:54;;;;;;;;;;;11.00;99.90;;;;;;6212801;23;19922;-86
2023/03/24 07:31:23;;;;;;;;;;;10.70;99.90;;;;;;6186838;23;20054;-88
2023/03/24 07:33:49;;;;;;;;;;;10.70;99.90;;;;;;6211555;23;20317;-87
2023/03/24 07:36:15;;;;;;;;;;;10.80;99.90;;;;;;6210360;23;19906;-90
2023/03/24 07:38:41;;;;;;;;;;;10.80;99.90;;;;;;6185207;23;20244;-89
2023/03/24 07:41:06;;;;;;;;;;;11.00;99.90;;;;;;6209558;23;19904;-90
2023/03/24 07:43:32;;;;;;;;;;;11.20;99.90;;;;;;6213147;23;19919;-91
2023/03/24 07:45:57;;;;;;;;;;;11.10;99.90;;;;;;6183508;23;19900;-90
2023/03/24 07:48:23;;;;;;;;;;;11.20;99.90;;;;;;6186108;23;19900;-87
2023/03/24 07:50:48;;;;;;;;;;;11.20;99.90;;;;;;6184758;23;19904;-88
2023/03/24 07:53:18;;;;;;;;;;;11.20;99.90;;;;;;6185195;23;20383;-89
2023/03/24 07:55:44;;;;;;;;;;;11.30;99.90;;;;;;6185395;23;20328;-90
2023/03/24 07:58:10;;;;;;;;;;;11.60;99.90;;;;;;6186371;23;19961;-89
2023/03/24 08:00:37;;;;;;;;;;;11.70;99.90;;;;;;6212497;23;19900;-90
2023/03/24 08:03:03;;;;;;;;;;;11.60;99.90;;;;;;6187800;23;19919;-89
2023/03/24 08:05:29;;;;;;;;;;;11.50;99.90;;;;;;6212211;23;19983;-92
2023/03/24 08:07:59;;;;;;;;;;;11.50;99.90;;;;;;6210282;23;19900;-88
2023/03/24 08:10:28;;;;;;;;;;;11.60;99.90;;;;;;6211423;23;19900;-91
2023/03/24 08:12:56;;;;;;;;;;;11.70;99.90;;;;;;6182382;23;19900;-89
2023/03/24 08:15:22;;;;;;;;;;;11.80;99.90;;;;;;6211901;23;19904;-91
2023/03/24 08:17:52;;;;;;;;;;;12.00;99.90;;;;;;6210484;23;20362;-88
2023/03/24 08:20:18;;;;;;;;;;;12.10;99.90;;;;;;6210133;23;19914;-87
2023/03/24 08:22:52;;;;;;;;;;;12.10;99.90;;;;;;6185230;23;19915;-88
2023/03/24 08:25:20;;;;;;;;;;;12.00;99.90;;;;;;6186385;23;19900;-90
2023/03/24 08:27:46;;;;;;;;;;;12.00;99.90;;;;;;6183729;23;19979;-90
2023/03/24 08:30:16;;;;;;;;;;;12.00;99.90;;;;;;6187810;23;19948;-88
2023/03/24 08:32:46;;;;;;;;;;;12.50;99.90;;;;;;6183618;23;19911;-90
2023/03/24 08:35:13;;;;;;;;;;;10.50;99.90;;;;;;6186048;23;19900;-88
2023/03/24 08:37:41;;;;;;;;;;;11.90;99.90;;;;;;6211907;23;19946;-89
2023/03/24 08:40:10;;;;;;;;;;;12.00;99.90;;;;;;6210771;23;20568;-88
2023/03/24 08:42:38;;;;;;;;;;;12.10;99.90;;;;;;6210251;23;19943;-90
2023/03/24 08:45:12;;;;;;;;;;;12.10;99.90;;;;;;6183777;23;19974;-88
2023/03/24 08:47:39;;;;;;;;;;;12.20;99.90;;;;;;6212091;23;19904;-88
2023/03/24 08:50:05;;;;;;;;;;;12.20;99.90;;;;;;6209383;23;20267;-89
2023/03/24 08:52:31;;;;;;;;;;;12.20;99.90;;;;;;6183861;23;20304;-89
2023/03/24 08:54:57;;;;;;;;;;;12.30;99.90;;;;;;6185737;23;19900;-87
2023/03/24 08:57:22;;;;;;;;;;;12.40;99.90;;;;;;6185126;23;19948;-87
2023/03/24 08:59:48;;;;;;;;;;;12.60;99.90;;;;;;6211099;23;19911;-89
2023/03/24 09:02:13;;;;;;;;;;;12.50;99.90;;;;;;6210442;23;19965;-89
2023/03/24 09:04:41;;;;;;;;;;;12.60;99.90;;;;;;6212764;23;19900;-88
2023/03/24 09:07:06;;;;;;;;;;;12.70;99.90;;;;;;6211056;23;20249;-87
2023/03/24 09:09:32;;;;;;;;;;;12.70;99.90;;;;;;6210773;23;19899;-89
2023/03/24 09:11:57;;;;;;;;;;;12.70;99.90;;;;;;6208700;23;19907;-91
2023/03/24 09:14:23;;;;;;;;;;;12.80;99.90;;;;;;6207924;23;20248;-88
2023/03/24 09:16:49;;;;;;;;;;;12.80;99.90;;;;;;6209480;23;20344;-88
2023/03/24 09:19:15;;;;;;;;;;;12.70;99.90;;;;;;6209426;23;19979;-88
2023/03/24 09:21:43;;;;;;;;;;;12.80;99.90;;;;;;6208902;23;19908;-93
2023/03/24 09:24:08;;;;;;;;;;;12.70;99.90;;;;;;6212384;23;20230;-90
2023/03/24 09:26:34;;;;;;;;;;;13.00;99.90;;;;;;6209334;23;19943;-89
2023/03/24 09:28:59;;;;;;;;;;;13.20;99.90;;;;;;6210049;23;20667;-90
2023/03/24 09:31:25;;;;;;;;;;;13.00;99.90;;;;;;6210278;23;19903;-90
2023/03/24 09:33:51;;;;;;;;;;;13.00;99.90;;;;;;6211786;23;19935;-89
2023/03/24 09:36:17;;;;;;;;;;;13.00;99.90;;;;;;6184516;23;19900;-87
2023/03/24 09:38:42;;;;;;;;;;;13.20;99.90;;;;;;6184774;23;19910;-87
2023/03/24 09:41:16;;;;;;;;;;;13.30;99.90;;;;;;6182808;23;19899;-89
2023/03/24 09:43:55;;;;;;;;;;;13.50;99.90;;;;;;6209568;23;19914;-90
2023/03/24 09:46:33;;;;;;;;;;;13.70;99.90;;;;;;6208914;23;19904;-88
2023/03/24 09:48:59;;;;;;;;;;;13.90;99.90;;;;;;6182368;23;19900;-86
2023/03/24 09:51:24;;;;;;;;;;;13.90;99.90;;;;;;6207865;23;19906;-89
2023/03/24 09:53:56;;;;;;;;;;;13.80;99.90;;;;;;6212164;23;19904;-89
2023/03/24 09:56:22;;;;;;;;;;;14.00;99.90;;;;;;6211632;23;20347;-89
2023/03/24 09:58:57;;;;;;;;;;;14.30;99.90;;;;;;6211996;23;19907;-90
2023/03/24 10:01:22;;;;;;;;;;;14.50;99.90;;;;;;6211980;23;19953;-89
2023/03/24 10:03:48;;;;;;;;;;;14.60;99.90;;;;;;6186486;23;19903;-89
2023/03/24 10:06:24;;;;;;;;;;;14.70;99.90;;;;;;6187226;23;19991;-90
2023/03/24 10:09:10;;;;;;;;;;;14.80;99.90;;;;;;6186331;23;20244;-89
2023/03/24 10:11:36;;;;;;;;;;;14.40;99.90;;;;;;6210097;23;19904;-88
2023/03/24 10:14:24;;;;;;;;;;;14.20;99.90;;;;;;6179463;23;19907;-89
2023/03/24 10:17:04;;;;;;;;;;;14.20;99.90;;;;;;6180739;23;19900;-86
2023/03/24 10:19:39;;;;;;;;;;;14.20;99.90;;;;;;6210055;23;19906;-90
2023/03/24 10:22:11;;;;;;;;;;;14.40;99.90;;;;;;6210582;23;19907;-87
2023/03/24 10:24:50;;;;;;;;;;;14.30;99.90;;;;;;6183301;23;19967;-87
2023/03/24 10:27:27;;;;;;;;;;;14.00;99.90;;;;;;6182272;23;20206;-86
2023/03/24 10:30:01;;;;;;;;;;;13.70;99.90;;;;;;6206184;23;19900;-88
2023/03/24 10:32:28;;;;;;;;;;;13.90;99.90;;;;;;6205731;23;19938;-85
2023/03/24 10:34:57;;;;;;;;;;;14.00;99.90;;;;;;6210462;23;19903;-86
2023/03/24 10:37:24;;;;;;;;;;;13.90;99.90;;;;;;6211206;23;19954;-87
2023/03/24 10:39:50;;;;;;;;;;;13.90;99.90;;;;;;6207324;23;20234;-86
2023/03/24 10:42:17;;;;;;;;;;;13.90;99.90;;;;;;6181300;23;19904;-87
2023/03/24 10:44:44;;;;;;;;;;;14.00;99.90;;;;;;6206777;23;19903;-86
2023/03/24 10:47:09;;;;;;;;;;;13.70;99.90;;;;;;6205740;23;19904;-85
2023/03/24 10:49:36;;;;;;;;;;;13.40;99.90;;;;;;6181442;23;20711;-86
2023/03/24 10:52:07;;;;;;;;;;;13.00;99.90;;;;;;6180293;23;20348;-86
2023/03/24 10:54:33;;;;;;;;;;;12.70;99.90;;;;;;6184940;23;19900;-89
2023/03/24 10:57:02;;;;;;;;;;;12.50;99.90;;;;;;6210817;23;19962;-87
2023/03/24 10:59:28;;;;;;;;;;;12.50;99.90;;;;;;6210793;23;19900;-87
2023/03/24 11:01:58;;;;;;;;;;;12.50;99.90;;;;;;6210893;23;19959;-90
2023/03/24 11:04:24;;;;;;;;;;;12.30;99.90;;;;;;6210885;23;19907;-86
2023/03/24 11:07:01;;;;;;;;;;;12.10;99.90;;;;;;6210413;23;19900;-86
2023/03/24 11:09:26;;;;;;;;;;;12.30;99.90;;;;;;6184182;23;19962;-85
2023/03/24 11:11:52;;;;;;;;;;;12.60;99.90;;;;;;6210989;23;19904;-86
2023/03/24 11:14:27;;;;;;;;;;;12.90;99.90;;;;;;6210873;23;19906;-89
2023/03/24 11:17:00;;;;;;;;;;;13.10;99.90;;;;;;6210860;23;19906;-89
2023/03/24 11:19:26;;;;;;;;;;;13.30;99.90;;;;;;6184500;23;20030;-88
2023/03/24 11:21:56;;;;;;;;;;;13.30;99.90;;;;;;6183675;23;19958;-86
2023/03/24 11:24:22;;;;;;;;;;;13.40;99.90;;;;;;6184783;23;19900;-86
2023/03/24 11:27:02;;;;;;;;;;;13.40;99.90;;;;;;6211371;23;19922;-90
2023/03/24 11:29:29;;;;;;;;;;;13.60;99.90;;;;;;6184992;23;19979;-89
2023/03/24 11:31:56;;;;;;;;;;;13.90;99.90;;;;;;6210960;23;19975;-91
2023/03/24 11:34:32;;;;;;;;;;;13.90;99.90;;;;;;6184366;23;19903;-88
2023/03/24 11:37:18;;;;;;;;;;;14.40;99.90;;;;;;6183523;23;20291;-86
2023/03/24 11:39:45;;;;;;;;;;;14.60;99.90;;;;;;6212095;23;19945;-89
2023/03/24 11:42:16;;;;;;;;;;;14.80;99.90;;;;;;6186743;23;19927;-92
2023/03/24 11:44:50;;;;;;;;;;;14.70;99.90;;;;;;6185095;23;20241;-89
2023/03/24 11:47:30;;;;;;;;;;;14.90;99.90;;;;;;6216234;23;19954;-89
2023/03/24 11:50:08;;;;;;;;;;;15.30;99.90;;;;;;6212098;23;19923;-91
2023/03/24 11:52:36;;;;;;;;;;;15.40;99.90;;;;;;6186003;23;19900;-90
2023/03/24 11:55:02;;;;;;;;;;;15.20;99.90;;;;;;6186205;23;19904;-91
2023/03/24 11:57:43;;;;;;;;;;;15.10;99.90;;;;;;6186176;23;19906;-91
2023/03/24 12:00:16;;;;;;;;;;;14.70;99.90;;;;;;6186270;23;19903;-90
2023/03/24 12:02:41;;;;;;;;;;;14.50;99.90;;;;;;6186145;23;20325;-90
2023/03/24 12:05:15;;;;;;;;;;;14.30;99.90;;;;;;6212055;23;19986;-93
2023/03/24 12:07:50;;;;;;;;;;;14.10;99.90;;;;;;6185964;23;19987;-90
2023/03/24 12:10:34;;;;;;;;;;;13.50;99.90;;;;;;6213596;23;19904;-88
2023/03/24 12:13:05;;;;;;;;;;;13.10;99.90;;;;;;6212353;23;20289;-90
2023/03/24 12:15:35;;;;;;;;;;;12.60;99.90;;;;;;6212798;23;20337;-90
2023/03/24 12:18:19;;;;;;;;;;;11.90;99.90;;;;;;6186183;23;20240;-89
2023/03/24 12:20:50;;;;;;;;;;;11.10;99.90;;;;;;6186574;23;19970;-88
2023/03/24 12:23:25;;;;;;;;;;;11.30;99.90;;;;;;6213280;23;19987;-91
2023/03/24 12:26:09;;;;;;;;;;;11.40;99.90;;;;;;6211847;23;19907;-91
2023/03/24 12:28:47;;;;;;;;;;;11.50;99.90;;;;;;6211412;23;19927;-92
2023/03/24 12:31:33;;;;;;;;;;;12.00;99.90;;;;;;6184829;23;19978;-90
2023/03/24 12:34:17;;;;;;;;;;;11.80;99.90;;;;;;6186164;23;19907;-90
2023/03/24 12:37:03;;;;;;;;;;;11.80;99.90;;;;;;6195224;23;20244;-89
2023/03/24 12:39:36;;;;;;;;;;;11.80;99.90;;;;;;6113264;23;19986;-92
2023/03/24 12:42:01;;;;;;;;;;;11.90;99.90;;;;;;6184803;23;19919;-90
2023/03/24 12:44:41;;;;;;;;;;;11.80;99.90;;;;;;6211570;23;19907;-89
2023/03/24 12:47:21;;;;;;;;;;;11.90;99.90;;;;;;6211699;23;20391;-90
2023/03/24 12:49:56;;;;;;;;;;;12.20;99.90;;;;;;6186708;23;19906;-93
2023/03/24 12:52:30;;;;;;;;;;;12.50;99.90;;;;;;6186175;23;19903;-91
2023/03/24 12:55:16;;;;;;;;;;;12.50;99.90;;;;;;6186522;23;19906;-91
2023/03/24 12:57:51;;;;;;;;;;;12.60;99.90;;;;;;6186316;23;19908;-90
2023/03/24 13:00:19;;;;;;;;;;;12.70;99.90;;;;;;6186835;23;19899;-89
2023/03/24 13:02:47;;;;;;;;;;;12.80;99.90;;;;;;6185464;23;19958;-88
2023/03/24 13:05:30;;;;;;;;;;;12.90;99.90;;;;;;6211688;23;19900;-89
2023/03/24 13:07:58;;;;;;;;;;;13.10;99.90;;;;;;6211727;23;20249;-90
2023/03/24 13:10:28;;;;;;;;;;;13.30;99.90;;;;;;6185825;23;19964;-90
2023/03/24 13:12:57;;;;;;;;;;;13.20;99.90;;;;;;6211649;23;20363;-89
2023/03/24 13:15:42;;;;;;;;;;;13.10;99.90;;;;;;6186015;23;20352;-91
2023/03/24 13:18:08;;;;;;;;;;;13.30;99.90;;;;;;6212212;23;19899;-90
2023/03/24 13:20:36;;;;;;;;;;;13.50;99.90;;;;;;6185071;23;20403;-92
2023/03/24 13:23:09;;;;;;;;;;;13.60;99.90;;;;;;6213420;23;19912;-92
2023/03/24 13:25:48;;;;;;;;;;;13.60;99.90;;;;;;6186982;23;19900;-90
2023/03/24 13:28:20;;;;;;;;;;;13.40;99.90;;;;;;6185237;23;19939;-92
2023/03/24 13:30:47;;;;;;;;;;;13.40;99.90;;;;;;6187072;23;19916;-93
2023/03/24 13:33:19;;;;;;;;;;;13.20;99.90;;;;;;6187441;23;20280;-91
2023/03/24 13:36:03;;;;;;;;;;;13.10;99.90;;;;;;6188462;23;19900;-92
2023/03/24 13:38:47;;;;;;;;;;;13.10;99.90;;;;;;6213531;23;20376;-91
2023/03/24 13:41:17;;;;;;;;;;;13.00;99.90;;;;;;6187190;23;19903;-90
2023/03/24 13:43:47;;;;;;;;;;;13.00;99.90;;;;;;6186649;23;20198;-92
2023/03/24 13:46:13;;;;;;;;;;;13.00;99.90;;;;;;6187343;23;19953;-93
2023/03/24 13:49:05;;;;;;;;;;;13.00;99.90;;;;;;6213751;23;19919;-94
2023/03/24 13:51:39;;;;;;;;;;;13.00;99.90;;;;;;6179949;23;19900;-93
2023/03/24 13:54:08;;;;;;;;;;;12.90;99.90;;;;;;6186740;23;19907;-94
2023/03/24 13:56:35;;;;;;;;;;;12.60;99.90;;;;;;6186052;23;19987;-91
2023/03/24 13:59:01;;;;;;;;;;;12.40;99.90;;;;;;6186306;23;20277;-91
2023/03/24 14:01:30;;;;;;;;;;;12.30;99.90;;;;;;6187016;23;19915;-91
2023/03/24 14:04:11;;;;;;;;;;;12.10;99.90;;;;;;6186464;23;19935;-92
2023/03/24 14:06:47;;;;;;;;;;;12.00;99.90;;;;;;6186375;23;19900;-92
2023/03/24 14:09:34;;;;;;;;;;;11.90;99.90;;;;;;6213232;23;19900;-93
2023/03/24 14:12:02;;;;;;;;;;;10.20;99.90;;;;;;6187214;23;19931;-92
2023/03/24 14:14:29;;;;;;;;;;;11.00;99.90;;;;;;6186828;23;19900;-93
2023/03/24 14:17:07;;;;;;;;;;;11.90;99.90;;;;;;6185850;23;19904;-90
2023/03/24 14:19:51;;;;;;;;;;;11.80;99.90;;;;;;6186306;23;19903;-92
2023/03/24 14:22:38;;;;;;;;;;;11.80;99.90;;;;;;6187562;23;19982;-92
2023/03/24 14:25:13;;;;;;;;;;;11.70;99.90;;;;;;6185970;23;19903;-93
2023/03/24 14:27:41;;;;;;;;;;;11.50;99.90;;;;;;6187026;23;19900;-92
2023/03/24 14:30:09;;;;;;;;;;;11.20;99.90;;;;;;6185771;23;19899;-91
2023/03/24 14:32:45;;;;;;;;;;;11.10;99.90;;;;;;6185124;23;19900;-91
2023/03/24 14:35:30;;;;;;;;;;;11.10;99.90;;;;;;6185908;23;19900;-93